sensor_id;sensor_type;location;lat;lon;timestamp;temperature;humidity
16289;DHT22;26089;43.538;5.250;2023-03-01T00:01:11;3.80;99.90
16289;DHT22;26089;43.538;5.250;2023-03-01T00:03:39;3.90;99.90
16289;DHT22;26089;43.538;5.250;2023-03-01T00:06:06;4.70;99.90
16289;DHT22;26089;43.538;5.250;2023-03-01T00:08:34;3.90;99.90
16289;DHT22;26089;43.538;5.250;2023-03-01T00:11:03;4.00;99.90
16289;DHT22;26089;43.538;5.250;2023-03-01T00:13:30;3.90;99.90
16289;DHT22;26089;43.538;5.250;2023-03-01T00:15:59;3.90;99.90
16289;DHT22;26089;43.538;5.250;2023-03-01T00:18:27;3.10;99.90
16289;DHT22;26089;43.538;5.250;2023-03-01T00:20:55;4.00;99.90
16289;DHT22;26089;43.538;5.250;2023-03-01T00:23:23;4.00;99.90
16289;DHT22;26089;43.538;5.250;2023-03-01T00:25:51;4.20;99.90
16289;DHT22;26089;43.538;5.250;2023-03-01T00:28:18;3.70;99.90
16289;DHT22;26089;43.538;5.250;2023-03-01T00:30:46;3.90;99.90
16289;DHT22;26089;43.538;5.250;2023-03-01T00:33:14;3.80;99.90
16289;DHT22;26089;43.538;5.250;2023-03-01T00:35:41;3.70;99.90
16289;DHT22;26089;43.538;5.250;2023-03-01T00:38:08;3.70;99.90
16289;DHT22;26089;43.538;5.250;2023-03-01T00:40:36;3.50;99.90
16289;DHT22;26089;43.538;5.250;2023-03-01T00:43:03;3.30;99.90
16289;DHT22;26089;43.538;5.250;2023-03-01T00:45:30;3.40;99.90
16289;DHT22;26089;43.538;5.250;2023-03-01T00:47:57;3.60;99.90
16289;DHT22;26089;43.538;5.250;2023-03-01T00:50:26;4.00;99.90
16289;DHT22;26089;43.538;5.250;2023-03-01T00:52:53;2.70;99.90
16289;DHT22;26089;43.538;5.250;2023-03-01T00:55:21;3.20;99.90
16289;DHT22;26089;43.538;5.250;2023-03-01T00:57:48;3.20;99.90
16289;DHT22;26089;43.538;5.250;2023-03-01T01:00:15;3.20;99.90
16289;DHT22;26089;43.538;5.250;2023-03-01T01:02:43;3.20;99.90
16289;DHT22;26089;43.538;5.250;2023-03-01T01:05:10;2.90;99.90
16289;DHT22;26089;43.538;5.250;2023-03-01T01:07:39;3.40;99.90
16289;DHT22;26089;43.538;5.250;2023-03-01T01:10:06;3.30;99.90
16289;DHT22;26089;43.538;5.250;2023-03-01T01:12:33;4.20;99.90
16289;DHT22;26089;43.538;5.250;2023-03-01T01:15:00;3.20;99.90
16289;DHT22;26089;43.538;5.250;2023-03-01T01:17:27;3.00;99.90
16289;DHT22;26089;43.538;5.250;2023-03-01T01:19:54;2.40;99.90
16289;DHT22;26089;43.538;5.250;2023-03-01T01:22:21;3.10;99.90
16289;DHT22;26089;43.538;5.250;2023-03-01T01:24:50;2.90;99.90
16289;DHT22;26089;43.538;5.250;2023-03-01T01:27:17;2.90;99.90
16289;DHT22;26089;43.538;5.250;2023-03-01T01:29:43;2.80;99.90
16289;DHT22;26089;43.538;5.250;2023-03-01T01:32:10;2.80;99.90
16289;DHT22;26089;43.538;5.250;2023-03-01T01:34:37;2.90;99.90
16289;DHT22;26089;43.538;5.250;2023-03-01T01:37:05;2.90;99.90
16289;DHT22;26089;43.538;5.250;2023-03-01T01:39:33;3.00;99.90
16289;DHT22;26089;43.538;5.250;2023-03-01T01:42:02;2.40;99.90
16289;DHT22;26089;43.538;5.250;2023-03-01T01:44:29;3.00;99.90
16289;DHT22;26089;43.538;5.250;2023-03-01T01:46:58;3.00;99.90
16289;DHT22;26089;43.538;5.250;2023-03-01T01:49:31;3.00;99.90
16289;DHT22;26089;43.538;5.250;2023-03-01T01:52:04;2.90;99.90
16289;DHT22;26089;43.538;5.250;2023-03-01T01:54:38;3.00;99.90
16289;DHT22;26089;43.538;5.250;2023-03-01T01:57:13;3.00;99.90
16289;DHT22;26089;43.538;5.250;2023-03-01T01:59:44;3.00;99.90
16289;DHT22;26089;43.538;5.250;2023-03-01T02:02:13;3.10;99.90
16289;DHT22;26089;43.538;5.250;2023-03-01T02:04:40;3.10;99.90
16289;DHT22;26089;43.538;5.250;2023-03-01T02:07:13;3.20;99.90
16289;DHT22;26089;43.538;5.250;2023-03-01T02:09:42;3.30;99.90
16289;DHT22;26089;43.538;5.250;2023-03-01T02:12:13;3.30;99.90
16289;DHT22;26089;43.538;5.250;2023-03-01T02:14:40;3.40;99.90
16289;DHT22;26089;43.538;5.250;2023-03-01T02:17:07;3.40;99.90
16289;DHT22;26089;43.538;5.250;2023-03-01T02:19:44;3.40;99.90
16289;DHT22;26089;43.538;5.250;2023-03-01T02:22:20;3.40;99.90
16289;DHT22;26089;43.538;5.250;2023-03-01T02:25:00;3.30;99.90
16289;DHT22;26089;43.538;5.250;2023-03-01T02:27:36;3.30;99.90
16289;DHT22;26089;43.538;5.250;2023-03-01T02:30:07;2.70;99.90
16289;DHT22;26089;43.538;5.250;2023-03-01T02:32:38;3.20;99.90
16289;DHT22;26089;43.538;5.250;2023-03-01T02:35:09;3.10;99.90
16289;DHT22;26089;43.538;5.250;2023-03-01T02:37:37;3.40;99.90
16289;DHT22;26089;43.538;5.250;2023-03-01T02:40:08;2.40;99.90
16289;DHT22;26089;43.538;5.250;2023-03-01T02:42:42;3.00;99.90
16289;DHT22;26089;43.538;5.250;2023-03-01T02:45:13;2.90;99.90
16289;DHT22;26089;43.538;5.250;2023-03-01T02:47:40;2.90;99.90
16289;DHT22;26089;43.538;5.250;2023-03-01T02:50:19;2.90;99.90
16289;DHT22;26089;43.538;5.250;2023-03-01T02:52:55;2.90;99.90
16289;DHT22;26089;43.538;5.250;2023-03-01T02:55:24;3.50;99.90
16289;DHT22;26089;43.538;5.250;2023-03-01T02:57:51;3.00;99.90
16289;DHT22;26089;43.538;5.250;2023-03-01T03:00:23;3.10;99.90
16289;DHT22;26089;43.538;5.250;2023-03-01T03:02:53;3.10;99.90
16289;DHT22;26089;43.538;5.250;2023-03-01T03:05:24;3.10;99.90
16289;DHT22;26089;43.538;5.250;2023-03-01T03:07:52;3.10;99.90
16289;DHT22;26089;43.538;5.250;2023-03-01T03:10:21;3.10;99.90
16289;DHT22;26089;43.538;5.250;2023-03-01T03:12:50;3.20;99.90
16289;DHT22;26089;43.538;5.250;2023-03-01T03:15:18;3.20;99.90
16289;DHT22;26089;43.538;5.250;2023-03-01T03:17:47;2.50;99.90
16289;DHT22;26089;43.538;5.250;2023-03-01T03:20:17;3.30;99.90
16289;DHT22;26089;43.538;5.250;2023-03-01T03:22:45;3.30;99.90
16289;DHT22;26089;43.538;5.250;2023-03-01T03:25:13;3.30;99.90
16289;DHT22;26089;43.538;5.250;2023-03-01T03:27:42;3.30;99.90
16289;DHT22;26089;43.538;5.250;2023-03-01T03:30:12;3.30;99.90
16289;DHT22;26089;43.538;5.250;2023-03-01T03:32:40;3.90;99.90
16289;DHT22;26089;43.538;5.250;2023-03-01T03:35:09;3.30;99.90
16289;DHT22;26089;43.538;5.250;2023-03-01T03:37:37;3.30;99.90
16289;DHT22;26089;43.538;5.250;2023-03-01T03:40:21;3.70;99.90
16289;DHT22;26089;43.538;5.250;2023-03-01T03:42:48;3.30;99.90
16289;DHT22;26089;43.538;5.250;2023-03-01T03:45:15;3.20;99.90
16289;DHT22;26089;43.538;5.250;2023-03-01T03:47:43;3.20;99.90
16289;DHT22;26089;43.538;5.250;2023-03-01T03:50:13;3.10;99.90
16289;DHT22;26089;43.538;5.250;2023-03-01T03:52:40;3.10;99.90
16289;DHT22;26089;43.538;5.250;2023-03-01T03:55:09;2.30;99.90
16289;DHT22;26089;43.538;5.250;2023-03-01T03:57:36;3.10;99.90
16289;DHT22;26089;43.538;5.250;2023-03-01T04:00:05;3.20;99.90
16289;DHT22;26089;43.538;5.250;2023-03-01T04:02:38;3.20;99.90
16289;DHT22;26089;43.538;5.250;2023-03-01T04:05:06;4.10;99.90
16289;DHT22;26089;43.538;5.250;2023-03-01T04:07:35;3.30;99.90
16289;DHT22;26089;43.538;5.250;2023-03-01T04:10:02;3.30;99.90
16289;DHT22;26089;43.538;5.250;2023-03-01T04:12:29;3.30;99.90
16289;DHT22;26089;43.538;5.250;2023-03-01T04:14:56;3.50;99.90
16289;DHT22;26089;43.538;5.250;2023-03-01T04:17:23;3.70;99.90
16289;DHT22;26089;43.538;5.250;2023-03-01T04:19:50;3.30;99.90
16289;DHT22;26089;43.538;5.250;2023-03-01T04:22:17;3.30;99.90
16289;DHT22;26089;43.538;5.250;2023-03-01T04:24:46;3.30;99.90
16289;DHT22;26089;43.538;5.250;2023-03-01T04:27:13;3.30;99.90
16289;DHT22;26089;43.538;5.250;2023-03-01T04:29:40;3.30;99.90
16289;DHT22;26089;43.538;5.250;2023-03-01T04:32:07;3.30;99.90
16289;DHT22;26089;43.538;5.250;2023-03-01T04:34:34;2.00;99.90
16289;DHT22;26089;43.538;5.250;2023-03-01T04:37:00;4.10;99.90
16289;DHT22;26089;43.538;5.250;2023-03-01T04:39:28;3.30;99.90
16289;DHT22;26089;43.538;5.250;2023-03-01T04:41:56;3.50;99.90
16289;DHT22;26089;43.538;5.250;2023-03-01T04:44:23;3.30;99.90
16289;DHT22;26089;43.538;5.250;2023-03-01T04:46:50;3.00;99.90
16289;DHT22;26089;43.538;5.250;2023-03-01T04:49:17;3.20;99.90
16289;DHT22;26089;43.538;5.250;2023-03-01T04:51:44;3.10;99.90
16289;DHT22;26089;43.538;5.250;2023-03-01T04:54:11;3.10;99.90
16289;DHT22;26089;43.538;5.250;2023-03-01T04:56:37;3.80;99.90
16289;DHT22;26089;43.538;5.250;2023-03-01T04:59:06;3.10;99.90
16289;DHT22;26089;43.538;5.250;2023-03-01T05:01:35;3.10;99.90
16289;DHT22;26089;43.538;5.250;2023-03-01T05:04:02;3.10;99.90
16289;DHT22;26089;43.538;5.250;2023-03-01T05:06:31;3.70;99.90
16289;DHT22;26089;43.538;5.250;2023-03-01T05:08:58;3.10;99.90
16289;DHT22;26089;43.538;5.250;2023-03-01T05:11:25;2.80;99.90
16289;DHT22;26089;43.538;5.250;2023-03-01T05:13:53;3.00;99.90
16289;DHT22;26089;43.538;5.250;2023-03-01T05:16:22;3.20;99.90
16289;DHT22;26089;43.538;5.250;2023-03-01T05:18:49;3.00;99.90
16289;DHT22;26089;43.538;5.250;2023-03-01T05:21:17;3.00;99.90
16289;DHT22;26089;43.538;5.250;2023-03-01T05:23:44;3.10;99.90
16289;DHT22;26089;43.538;5.250;2023-03-01T05:26:12;3.00;99.90
16289;DHT22;26089;43.538;5.250;2023-03-01T05:28:39;3.60;99.90
16289;DHT22;26089;43.538;5.250;2023-03-01T05:31:07;3.00;99.90
16289;DHT22;26089;43.538;5.250;2023-03-01T05:33:37;3.00;99.90
16289;DHT22;26089;43.538;5.250;2023-03-01T05:36:05;2.60;99.90
16289;DHT22;26089;43.538;5.250;2023-03-01T05:38:33;3.00;99.90
16289;DHT22;26089;43.538;5.250;2023-03-01T05:41:00;2.80;99.90
16289;DHT22;26089;43.538;5.250;2023-03-01T05:43:30;3.00;99.90
16289;DHT22;26089;43.538;5.250;2023-03-01T05:45:59;3.20;99.90
16289;DHT22;26089;43.538;5.250;2023-03-01T05:48:26;2.90;99.90
16289;DHT22;26089;43.538;5.250;2023-03-01T05:50:54;3.00;99.90
16289;DHT22;26089;43.538;5.250;2023-03-01T05:53:21;3.60;99.90
16289;DHT22;26089;43.538;5.250;2023-03-01T05:55:48;3.00;99.90
16289;DHT22;26089;43.538;5.250;2023-03-01T05:58:17;2.90;99.90
16289;DHT22;26089;43.538;5.250;2023-03-01T06:00:47;2.90;99.90
16289;DHT22;26089;43.538;5.250;2023-03-01T06:03:16;2.80;99.90
16289;DHT22;26089;43.538;5.250;2023-03-01T06:05:43;2.80;99.90
16289;DHT22;26089;43.538;5.250;2023-03-01T06:08:12;2.60;99.90
16289;DHT22;26089;43.538;5.250;2023-03-01T06:10:39;2.70;99.90
16289;DHT22;26089;43.538;5.250;2023-03-01T06:13:07;2.70;99.90
16289;DHT22;26089;43.538;5.250;2023-03-01T06:15:34;2.70;99.90
16289;DHT22;26089;43.538;5.250;2023-03-01T06:18:01;2.60;99.90
16289;DHT22;26089;43.538;5.250;2023-03-01T06:20:28;2.60;99.90
16289;DHT22;26089;43.538;5.250;2023-03-01T06:22:56;2.60;99.90
16289;DHT22;26089;43.538;5.250;2023-03-01T06:25:26;2.60;99.90
16289;DHT22;26089;43.538;5.250;2023-03-01T06:27:53;2.60;99.90
16289;DHT22;26089;43.538;5.250;2023-03-01T06:30:21;2.50;99.90
16289;DHT22;26089;43.538;5.250;2023-03-01T06:32:48;2.60;99.90
16289;DHT22;26089;43.538;5.250;2023-03-01T06:35:16;2.60;99.90
16289;DHT22;26089;43.538;5.250;2023-03-01T06:37:44;2.70;99.90
16289;DHT22;26089;43.538;5.250;2023-03-01T06:40:12;2.60;99.90
16289;DHT22;26089;43.538;5.250;2023-03-01T06:42:42;2.80;99.90
16289;DHT22;26089;43.538;5.250;2023-03-01T06:45:10;2.90;99.90
16289;DHT22;26089;43.538;5.250;2023-03-01T06:47:37;2.90;99.90
16289;DHT22;26089;43.538;5.250;2023-03-01T06:50:05;3.40;99.90
16289;DHT22;26089;43.538;5.250;2023-03-01T06:52:32;3.00;99.90
16289;DHT22;26089;43.538;5.250;2023-03-01T06:54:59;3.10;99.90
16289;DHT22;26089;43.538;5.250;2023-03-01T06:57:26;3.10;99.90
16289;DHT22;26089;43.538;5.250;2023-03-01T06:59:54;3.50;99.90
16289;DHT22;26089;43.538;5.250;2023-03-01T07:02:21;3.20;99.90
16289;DHT22;26089;43.538;5.250;2023-03-01T07:04:49;3.10;99.90
16289;DHT22;26089;43.538;5.250;2023-03-01T07:07:16;3.30;99.90
16289;DHT22;26089;43.538;5.250;2023-03-01T07:09:44;3.30;99.90
16289;DHT22;26089;43.538;5.250;2023-03-01T07:12:11;3.40;99.90
16289;DHT22;26089;43.538;5.250;2023-03-01T07:14:38;3.10;99.90
16289;DHT22;26089;43.538;5.250;2023-03-01T07:17:07;3.60;99.90
16289;DHT22;26089;43.538;5.250;2023-03-01T07:19:34;3.40;99.90
16289;DHT22;26089;43.538;5.250;2023-03-01T07:22:01;3.80;99.90
16289;DHT22;26089;43.538;5.250;2023-03-01T07:24:29;3.80;99.90
16289;DHT22;26089;43.538;5.250;2023-03-01T07:26:56;4.00;99.90
16289;DHT22;26089;43.538;5.250;2023-03-01T07:29:23;4.10;99.90
16289;DHT22;26089;43.538;5.250;2023-03-01T07:31:50;4.10;99.90
16289;DHT22;26089;43.538;5.250;2023-03-01T07:34:18;4.20;99.90
16289;DHT22;26089;43.538;5.250;2023-03-01T07:36:46;4.10;99.90
16289;DHT22;26089;43.538;5.250;2023-03-01T07:39:13;4.00;99.90
16289;DHT22;26089;43.538;5.250;2023-03-01T07:41:40;4.70;99.90
16289;DHT22;26089;43.538;5.250;2023-03-01T07:44:07;4.20;99.90
16289;DHT22;26089;43.538;5.250;2023-03-01T07:46:34;4.70;99.90
16289;DHT22;26089;43.538;5.250;2023-03-01T07:49:01;4.20;99.90
16289;DHT22;26089;43.538;5.250;2023-03-01T07:51:30;3.50;99.90
16289;DHT22;26089;43.538;5.250;2023-03-01T07:53:56;4.10;99.90
16289;DHT22;26089;43.538;5.250;2023-03-01T07:56:23;4.10;99.90
16289;DHT22;26089;43.538;5.250;2023-03-01T07:58:50;4.40;99.90
16289;DHT22;26089;43.538;5.250;2023-03-01T08:01:18;4.80;99.90
16289;DHT22;26089;43.538;5.250;2023-03-01T08:03:46;5.40;99.90
16289;DHT22;26089;43.538;5.250;2023-03-01T08:06:14;5.60;99.90
16289;DHT22;26089;43.538;5.250;2023-03-01T08:08:43;6.30;99.90
16289;DHT22;26089;43.538;5.250;2023-03-01T08:11:11;6.50;99.90
16289;DHT22;26089;43.538;5.250;2023-03-01T08:13:39;7.10;99.90
16289;DHT22;26089;43.538;5.250;2023-03-01T08:16:09;7.40;99.90
16289;DHT22;26089;43.538;5.250;2023-03-01T08:18:36;7.30;99.90
16289;DHT22;26089;43.538;5.250;2023-03-01T08:21:04;6.70;99.90
16289;DHT22;26089;43.538;5.250;2023-03-01T08:23:32;6.30;99.90
16289;DHT22;26089;43.538;5.250;2023-03-01T08:26:09;6.00;99.90
16289;DHT22;26089;43.538;5.250;2023-03-01T08:28:37;5.50;99.90
16289;DHT22;26089;43.538;5.250;2023-03-01T08:31:13;5.10;99.90
16289;DHT22;26089;43.538;5.250;2023-03-01T08:33:40;5.40;99.90
16289;DHT22;26089;43.538;5.250;2023-03-01T08:36:07;5.50;99.90
16289;DHT22;26089;43.538;5.250;2023-03-01T08:38:34;5.60;99.90
16289;DHT22;26089;43.538;5.250;2023-03-01T08:41:02;5.80;99.90
16289;DHT22;26089;43.538;5.250;2023-03-01T08:43:31;6.50;99.90
16289;DHT22;26089;43.538;5.250;2023-03-01T08:45:58;7.10;99.90
16289;DHT22;26089;43.538;5.250;2023-03-01T08:48:25;7.90;99.90
16289;DHT22;26089;43.538;5.250;2023-03-01T08:50:53;8.10;99.90
16289;DHT22;26089;43.538;5.250;2023-03-01T08:53:20;8.30;99.90
16289;DHT22;26089;43.538;5.250;2023-03-01T08:55:47;8.20;99.90
16289;DHT22;26089;43.538;5.250;2023-03-01T08:58:14;7.90;99.90
16289;DHT22;26089;43.538;5.250;2023-03-01T09:00:43;7.80;99.90
16289;DHT22;26089;43.538;5.250;2023-03-01T09:03:10;8.80;99.90
16289;DHT22;26089;43.538;5.250;2023-03-01T09:05:37;9.30;99.90
16289;DHT22;26089;43.538;5.250;2023-03-01T09:08:04;9.50;99.90
16289;DHT22;26089;43.538;5.250;2023-03-01T09:10:31;9.80;99.90
16289;DHT22;26089;43.538;5.250;2023-03-01T09:12:58;9.60;99.90
16289;DHT22;26089;43.538;5.250;2023-03-01T09:15:25;9.00;99.90
16289;DHT22;26089;43.538;5.250;2023-03-01T09:17:53;9.10;99.90
16289;DHT22;26089;43.538;5.250;2023-03-01T09:20:20;8.90;99.90
16289;DHT22;26089;43.538;5.250;2023-03-01T09:22:47;9.20;99.90
16289;DHT22;26089;43.538;5.250;2023-03-01T09:25:14;9.30;99.90
16289;DHT22;26089;43.538;5.250;2023-03-01T09:27:41;9.40;99.90
16289;DHT22;26089;43.538;5.250;2023-03-01T09:30:09;9.10;99.90
16289;DHT22;26089;43.538;5.250;2023-03-01T09:32:36;8.90;99.90
16289;DHT22;26089;43.538;5.250;2023-03-01T09:35:06;8.70;99.90
16289;DHT22;26089;43.538;5.250;2023-03-01T09:37:34;8.40;99.90
16289;DHT22;26089;43.538;5.250;2023-03-01T09:40:02;8.20;99.90
16289;DHT22;26089;43.538;5.250;2023-03-01T09:42:32;8.00;99.90
16289;DHT22;26089;43.538;5.250;2023-03-01T09:45:03;7.90;99.90
16289;DHT22;26089;43.538;5.250;2023-03-01T09:47:32;7.90;99.90
16289;DHT22;26089;43.538;5.250;2023-03-01T09:50:06;8.00;99.90
16289;DHT22;26089;43.538;5.250;2023-03-01T09:52:39;8.60;99.90
16289;DHT22;26089;43.538;5.250;2023-03-01T09:55:11;10.10;99.90
16289;DHT22;26089;43.538;5.250;2023-03-01T09:57:46;10.80;99.90
16289;DHT22;26089;43.538;5.250;2023-03-01T10:00:24;10.90;99.90
16289;DHT22;26089;43.538;5.250;2023-03-01T10:02:57;10.90;99.90
16289;DHT22;26089;43.538;5.250;2023-03-01T10:05:36;10.50;99.90
16289;DHT22;26089;43.538;5.250;2023-03-01T10:08:33;10.30;99.90
16289;DHT22;26089;43.538;5.250;2023-03-01T10:11:03;10.80;99.90
16289;DHT22;26089;43.538;5.250;2023-03-01T10:13:37;11.10;99.90
16289;DHT22;26089;43.538;5.250;2023-03-01T10:16:13;11.10;99.90
16289;DHT22;26089;43.538;5.250;2023-03-01T10:18:46;11.10;99.90
16289;DHT22;26089;43.538;5.250;2023-03-01T10:21:19;10.50;99.90
16289;DHT22;26089;43.538;5.250;2023-03-01T10:23:46;9.80;99.90
16289;DHT22;26089;43.538;5.250;2023-03-01T10:26:26;9.40;99.90
16289;DHT22;26089;43.538;5.250;2023-03-01T10:29:01;9.50;99.90
16289;DHT22;26089;43.538;5.250;2023-03-01T10:31:40;9.80;99.90
16289;DHT22;26089;43.538;5.250;2023-03-01T10:34:10;10.30;99.90
16289;DHT22;26089;43.538;5.250;2023-03-01T10:36:41;10.80;99.90
16289;DHT22;26089;43.538;5.250;2023-03-01T10:39:14;11.30;99.90
16289;DHT22;26089;43.538;5.250;2023-03-01T10:41:54;11.90;99.90
16289;DHT22;26089;43.538;5.250;2023-03-01T10:44:43;11.90;99.90
16289;DHT22;26089;43.538;5.250;2023-03-01T10:47:16;11.40;99.90
16289;DHT22;26089;43.538;5.250;2023-03-01T10:49:53;11.60;99.90
16289;DHT22;26089;43.538;5.250;2023-03-01T10:52:24;11.80;99.90
16289;DHT22;26089;43.538;5.250;2023-03-01T10:54:53;12.10;99.90
16289;DHT22;26089;43.538;5.250;2023-03-01T10:57:39;12.20;99.90
16289;DHT22;26089;43.538;5.250;2023-03-01T11:00:22;12.40;99.90
16289;DHT22;26089;43.538;5.250;2023-03-01T11:03:01;11.90;99.90
16289;DHT22;26089;43.538;5.250;2023-03-01T11:05:29;11.90;99.90
16289;DHT22;26089;43.538;5.250;2023-03-01T11:08:01;11.80;99.90
16289;DHT22;26089;43.538;5.250;2023-03-01T11:10:31;11.90;99.90
16289;DHT22;26089;43.538;5.250;2023-03-01T11:13:13;11.70;99.90
16289;DHT22;26089;43.538;5.250;2023-03-01T11:15:41;11.50;99.90
16289;DHT22;26089;43.538;5.250;2023-03-01T11:18:19;11.50;99.90
16289;DHT22;26089;43.538;5.250;2023-03-01T11:20:47;12.30;99.90
16289;DHT22;26089;43.538;5.250;2023-03-01T11:23:17;12.50;99.90
16289;DHT22;26089;43.538;5.250;2023-03-01T11:25:51;12.70;99.90
16289;DHT22;26089;43.538;5.250;2023-03-01T11:28:21;13.00;99.90
16289;DHT22;26089;43.538;5.250;2023-03-01T11:30:53;13.40;99.90
16289;DHT22;26089;43.538;5.250;2023-03-01T11:33:34;13.40;99.90
16289;DHT22;26089;43.538;5.250;2023-03-01T11:36:04;12.80;99.90
16289;DHT22;26089;43.538;5.250;2023-03-01T11:38:35;12.80;99.90
16289;DHT22;26089;43.538;5.250;2023-03-01T11:41:06;12.70;99.90
16289;DHT22;26089;43.538;5.250;2023-03-01T11:43:41;12.60;99.90
16289;DHT22;26089;43.538;5.250;2023-03-01T11:46:39;12.20;99.90
16289;DHT22;26089;43.538;5.250;2023-03-01T11:49:30;12.30;99.90
16289;DHT22;26089;43.538;5.250;2023-03-01T11:52:08;12.10;99.90
16289;DHT22;26089;43.538;5.250;2023-03-01T11:54:55;12.20;99.90
16289;DHT22;26089;43.538;5.250;2023-03-01T11:57:43;12.30;99.90
16289;DHT22;26089;43.538;5.250;2023-03-01T12:00:25;12.60;99.90
16289;DHT22;26089;43.538;5.250;2023-03-01T12:06:16;13.00;99.90
16289;DHT22;26089;43.538;5.250;2023-03-01T12:08:55;12.90;99.90
16289;DHT22;26089;43.538;5.250;2023-03-01T12:11:36;13.00;99.90
16289;DHT22;26089;43.538;5.250;2023-03-01T12:14:37;13.10;99.90
16289;DHT22;26089;43.538;5.250;2023-03-01T12:17:37;12.80;99.90
16289;DHT22;26089;43.538;5.250;2023-03-01T12:20:19;12.90;99.90
16289;DHT22;26089;43.538;5.250;2023-03-01T12:23:09;13.10;99.90
16289;DHT22;26089;43.538;5.250;2023-03-01T12:25:45;13.40;99.90
16289;DHT22;26089;43.538;5.250;2023-03-01T12:31:38;13.60;99.90
16289;DHT22;26089;43.538;5.250;2023-03-01T12:34:33;13.80;99.90
16289;DHT22;26089;43.538;5.250;2023-03-01T12:37:14;14.10;99.90
16289;DHT22;26089;43.538;5.250;2023-03-01T12:39:56;14.00;99.90
16289;DHT22;26089;43.538;5.250;2023-03-01T12:42:30;13.80;99.90
16289;DHT22;26089;43.538;5.250;2023-03-01T12:45:19;13.10;99.90
16289;DHT22;26089;43.538;5.250;2023-03-01T12:47:58;13.50;99.90
16289;DHT22;26089;43.538;5.250;2023-03-01T12:50:37;13.30;99.90
16289;DHT22;26089;43.538;5.250;2023-03-01T12:53:07;13.20;99.90
16289;DHT22;26089;43.538;5.250;2023-03-01T12:55:38;12.90;99.90
16289;DHT22;26089;43.538;5.250;2023-03-01T12:58:15;12.70;99.90
16289;DHT22;26089;43.538;5.250;2023-03-01T13:03:57;12.40;99.90
16289;DHT22;26089;43.538;5.250;2023-03-01T13:06:34;12.70;99.90
16289;DHT22;26089;43.538;5.250;2023-03-01T13:09:09;13.10;99.90
16289;DHT22;26089;43.538;5.250;2023-03-01T13:11:41;13.50;99.90
16289;DHT22;26089;43.538;5.250;2023-03-01T13:14:37;13.60;99.90
16289;DHT22;26089;43.538;5.250;2023-03-01T13:17:31;13.70;99.90
16289;DHT22;26089;43.538;5.250;2023-03-01T13:19:59;13.40;99.90
16289;DHT22;26089;43.538;5.250;2023-03-01T13:22:29;13.10;99.90
16289;DHT22;26089;43.538;5.250;2023-03-01T13:25:13;12.80;99.90
16289;DHT22;26089;43.538;5.250;2023-03-01T13:27:41;12.50;99.90
16289;DHT22;26089;43.538;5.250;2023-03-01T13:30:42;11.80;99.90
16289;DHT22;26089;43.538;5.250;2023-03-01T13:39:31;12.00;99.90
16289;DHT22;26089;43.538;5.250;2023-03-01T13:42:31;12.80;99.90
16289;DHT22;26089;43.538;5.250;2023-03-01T13:44:59;13.50;99.90
16289;DHT22;26089;43.538;5.250;2023-03-01T13:47:27;14.00;99.90
16289;DHT22;26089;43.538;5.250;2023-03-01T13:49:57;14.50;99.90
16289;DHT22;26089;43.538;5.250;2023-03-01T13:52:36;14.60;99.90
16289;DHT22;26089;43.538;5.250;2023-03-01T13:55:17;14.90;99.90
16289;DHT22;26089;43.538;5.250;2023-03-01T13:57:46;14.60;99.90
16289;DHT22;26089;43.538;5.250;2023-03-01T14:00:34;14.80;99.90
16289;DHT22;26089;43.538;5.250;2023-03-01T14:03:08;14.60;99.90
16289;DHT22;26089;43.538;5.250;2023-03-01T14:05:37;14.90;99.90
16289;DHT22;26089;43.538;5.250;2023-03-01T14:08:13;14.90;99.90
16289;DHT22;26089;43.538;5.250;2023-03-01T14:11:16;14.70;99.90
16289;DHT22;26089;43.538;5.250;2023-03-01T14:14:09;14.30;99.90
16289;DHT22;26089;43.538;5.250;2023-03-01T14:16:49;14.20;99.90
16289;DHT22;26089;43.538;5.250;2023-03-01T14:19:21;14.10;99.90
16289;DHT22;26089;43.538;5.250;2023-03-01T14:21:59;14.30;99.90
16289;DHT22;26089;43.538;5.250;2023-03-01T14:24:29;13.90;99.90
16289;DHT22;26089;43.538;5.250;2023-03-01T14:27:00;13.60;99.90
16289;DHT22;26089;43.538;5.250;2023-03-01T14:29:35;13.40;99.90
16289;DHT22;26089;43.538;5.250;2023-03-01T14:32:16;13.40;99.90
16289;DHT22;26089;43.538;5.250;2023-03-01T14:34:46;13.50;99.90
16289;DHT22;26089;43.538;5.250;2023-03-01T14:37:21;13.50;99.90
16289;DHT22;26089;43.538;5.250;2023-03-01T14:39:49;13.40;99.90
16289;DHT22;26089;43.538;5.250;2023-03-01T14:42:19;13.10;99.90
16289;DHT22;26089;43.538;5.250;2023-03-01T14:44:48;12.90;99.90
16289;DHT22;26089;43.538;5.250;2023-03-01T14:47:26;12.70;99.90
16289;DHT22;26089;43.538;5.250;2023-03-01T14:49:57;12.80;99.90
16289;DHT22;26089;43.538;5.250;2023-03-01T14:52:31;13.00;99.90
16289;DHT22;26089;43.538;5.250;2023-03-01T14:55:02;13.30;99.90
16289;DHT22;26089;43.538;5.250;2023-03-01T14:57:31;13.20;99.90
16289;DHT22;26089;43.538;5.250;2023-03-01T15:00:00;12.90;99.90
16289;DHT22;26089;43.538;5.250;2023-03-01T15:02:30;12.80;99.90
16289;DHT22;26089;43.538;5.250;2023-03-01T15:05:00;12.80;99.90
16289;DHT22;26089;43.538;5.250;2023-03-01T15:07:30;12.60;99.90
16289;DHT22;26089;43.538;5.250;2023-03-01T15:09:58;12.60;99.90
16289;DHT22;26089;43.538;5.250;2023-03-01T15:12:35;12.60;99.90
16289;DHT22;26089;43.538;5.250;2023-03-01T15:15:31;12.40;99.90
16289;DHT22;26089;43.538;5.250;2023-03-01T15:18:00;12.10;99.90
16289;DHT22;26089;43.538;5.250;2023-03-01T15:20:29;11.90;99.90
16289;DHT22;26089;43.538;5.250;2023-03-01T15:23:01;11.80;99.90
16289;DHT22;26089;43.538;5.250;2023-03-01T15:25:29;11.60;99.90
16289;DHT22;26089;43.538;5.250;2023-03-01T15:28:00;11.60;99.90
16289;DHT22;26089;43.538;5.250;2023-03-01T15:30:30;11.50;99.90
16289;DHT22;26089;43.538;5.250;2023-03-01T15:33:20;11.60;99.90
16289;DHT22;26089;43.538;5.250;2023-03-01T15:35:49;11.80;99.90
16289;DHT22;26089;43.538;5.250;2023-03-01T15:38:27;11.80;99.90
16289;DHT22;26089;43.538;5.250;2023-03-01T15:40:55;11.80;99.90
16289;DHT22;26089;43.538;5.250;2023-03-01T15:43:40;11.90;99.90
16289;DHT22;26089;43.538;5.250;2023-03-01T15:46:20;12.00;99.90
16289;DHT22;26089;43.538;5.250;2023-03-01T15:48:48;12.00;99.90
16289;DHT22;26089;43.538;5.250;2023-03-01T15:51:20;12.00;99.90
16289;DHT22;26089;43.538;5.250;2023-03-01T15:53:51;12.00;99.90
16289;DHT22;26089;43.538;5.250;2023-03-01T15:56:19;12.00;99.90
16289;DHT22;26089;43.538;5.250;2023-03-01T15:58:47;11.90;99.90
16289;DHT22;26089;43.538;5.250;2023-03-01T16:01:15;12.10;99.90
16289;DHT22;26089;43.538;5.250;2023-03-01T16:03:43;12.20;99.90
16289;DHT22;26089;43.538;5.250;2023-03-01T16:06:11;12.30;99.90
16289;DHT22;26089;43.538;5.250;2023-03-01T16:08:39;12.30;99.90
16289;DHT22;26089;43.538;5.250;2023-03-01T16:11:14;12.40;99.90
16289;DHT22;26089;43.538;5.250;2023-03-01T16:13:42;12.20;99.90
16289;DHT22;26089;43.538;5.250;2023-03-01T16:16:12;12.10;99.90
16289;DHT22;26089;43.538;5.250;2023-03-01T16:18:42;12.20;99.90
16289;DHT22;26089;43.538;5.250;2023-03-01T16:21:13;12.10;99.90